createdAt,value
2023-09-13T00:03:14.300Z,20.67
2023-09-13T00:08:19.261Z,21.98
2023-09-13T00:18:25.870Z,22.38
2023-09-13T00:23:30.850Z,20.75
2023-09-13T00:28:34.300Z,19.10
2023-09-13T00:33:37.868Z,21.98
2023-09-13T00:38:42.776Z,18.95
2023-09-13T00:43:46.723Z,19.65
2023-09-13T00:48:51.250Z,21.80
2023-09-13T00:53:57.531Z,20.88
2023-09-13T00:59:01.229Z,25.50
2023-09-13T01:04:05.673Z,24.63
2023-09-13T01:09:10.663Z,20.98
2023-09-13T01:14:14.256Z,23.88
2023-09-13T01:19:38.684Z,20.23
2023-09-13T01:25:02.665Z,23.15
2023-09-13T01:30:11.647Z,19.13
2023-09-13T01:35:15.385Z,21.17
2023-09-13T01:40:19.241Z,19.92
2023-09-13T01:45:25.979Z,19.52
2023-09-13T01:50:29.797Z,21.52
2023-09-13T01:55:36.298Z,20.67
2023-09-13T02:00:42.801Z,20.38
2023-09-13T02:05:47.692Z,20.58
2023-09-13T02:10:51.525Z,22.73
2023-09-13T02:15:56.643Z,25.55
2023-09-13T02:21:00.298Z,21.00
2023-09-13T02:26:04.543Z,20.05
2023-09-13T02:31:09.588Z,19.63
2023-09-13T02:36:13.089Z,18.80
2023-09-13T02:41:16.622Z,25.75
2023-09-13T02:46:21.615Z,20.27
2023-09-13T02:51:25.282Z,22.13
2023-09-13T02:56:28.733Z,21.30
2023-09-13T03:01:33.813Z,22.55
2023-09-13T03:06:37.347Z,21.38
2023-09-13T03:11:40.779Z,20.85
2023-09-13T03:16:45.685Z,21.65
2023-09-13T03:21:50.391Z,23.00
2023-09-13T03:26:53.880Z,24.65
2023-09-13T03:31:58.849Z,21.00
2023-09-13T03:37:02.506Z,20.73
2023-09-13T03:42:06.250Z,18.08
2023-09-13T03:47:11.283Z,21.63
2023-09-13T03:52:14.936Z,20.15
2023-09-13T03:57:18.491Z,22.15
2023-09-13T04:02:23.700Z,18.80
2023-09-13T04:07:27.330Z,20.52
2023-09-13T04:12:30.768Z,20.92
2023-09-13T04:17:35.784Z,24.63
2023-09-13T04:22:39.396Z,23.30
2023-09-13T04:27:45.125Z,22.35
2023-09-13T04:32:50.091Z,22.77
2023-09-13T04:37:55.262Z,23.55
2023-09-13T04:43:25.051Z,21.50
2023-09-13T04:48:30.147Z,30.48
2023-09-13T04:53:34.886Z,28.33
2023-09-13T05:03:46.595Z,34.73
2023-09-13T05:08:52.173Z,29.60
2023-09-13T05:14:11.227Z,27.00
2023-09-13T05:19:16.193Z,27.10
2023-09-13T05:24:19.846Z,28.80
2023-09-13T05:29:24.143Z,25.45
2023-09-13T05:34:29.787Z,27.23
2023-09-13T05:39:33.327Z,27.13
2023-09-13T05:44:36.882Z,24.48
2023-09-13T05:49:41.765Z,21.58
2023-09-13T05:54:45.310Z,26.42
2023-09-13T05:59:48.774Z,24.05
2023-09-13T06:04:53.765Z,19.35
2023-09-13T06:09:59.666Z,19.83
2023-09-13T06:15:03.254Z,22.30
2023-09-13T06:20:10.250Z,18.52
2023-09-13T06:25:15.798Z,19.27
2023-09-13T06:30:20.882Z,17.23
2023-09-13T06:35:25.993Z,17.95
2023-09-13T06:40:35.594Z,16.13
2023-09-13T06:45:54.147Z,14.52
2023-09-13T06:56:13.777Z,15.95
2023-09-13T07:06:26.263Z,10.10
2023-09-13T07:11:30.025Z,9.50
2023-09-13T07:16:33.771Z,9.82
2023-09-13T07:21:38.864Z,10.40
2023-09-13T07:26:42.371Z,10.10
2023-09-13T07:31:46.042Z,11.75
2023-09-13T07:36:51.004Z,9.25
2023-09-13T07:41:54.586Z,8.10
2023-09-13T07:46:58.207Z,9.43
2023-09-13T07:52:03.580Z,7.63
2023-09-13T07:57:07.370Z,7.13
2023-09-13T08:02:10.944Z,6.57
2023-09-13T08:07:15.933Z,7.70
2023-09-13T08:12:19.538Z,7.38
2023-09-13T08:17:23.165Z,8.80
2023-09-13T08:22:39.268Z,6.85
2023-09-13T08:27:44.299Z,5.85
2023-09-13T08:32:48.146Z,8.30
2023-09-13T08:37:53.140Z,8.52
2023-09-13T08:42:58.053Z,7.35
2023-09-13T08:48:03.684Z,7.57
2023-09-13T08:53:10.180Z,5.55
2023-09-13T08:58:13.709Z,7.32
2023-09-13T09:03:19.641Z,7.45
2023-09-13T09:08:26.320Z,8.85
2023-09-13T09:13:31.084Z,7.18
2023-09-13T09:18:38.950Z,9.13
2023-09-13T09:23:44.743Z,10.95
2023-09-13T09:28:52.059Z,11.02
2023-09-13T09:34:04.575Z,11.80
2023-09-13T09:39:09.880Z,8.85
2023-09-13T09:44:13.521Z,9.00
2023-09-13T09:49:17.026Z,11.95
2023-09-13T09:54:22.079Z,11.32
2023-09-13T09:59:30.357Z,7.75
2023-09-13T10:04:47.487Z,10.43
2023-09-13T10:09:52.860Z,10.25
2023-09-13T10:14:58.645Z,11.35
2023-09-13T10:20:04.984Z,15.30
2023-09-13T10:25:14.026Z,9.77
2023-09-13T10:30:23.169Z,8.20
2023-09-13T10:35:30.566Z,10.77
2023-09-13T10:40:42.394Z,6.97
2023-09-13T10:45:46.207Z,11.35
2023-09-13T10:50:50.941Z,11.40
2023-09-13T10:55:56.729Z,7.43
2023-09-13T11:01:00.968Z,8.07
2023-09-13T11:06:05.473Z,7.53
2023-09-13T11:11:13.484Z,10.32
2023-09-13T11:16:17.525Z,13.35
2023-09-13T11:21:22.605Z,11.02
2023-09-13T11:26:50.288Z,11.10
2023-09-13T11:32:02.327Z,10.55
2023-09-13T11:37:08.873Z,11.90
2023-09-13T11:42:25.805Z,9.60
2023-09-13T11:47:37.750Z,11.60
2023-09-13T11:53:14.791Z,9.27
2023-09-13T11:58:51.110Z,7.32
2023-09-13T12:09:00.279Z,9.30
2023-09-13T12:14:12.723Z,7.78
2023-09-13T12:19:19.772Z,6.35
2023-09-13T12:24:26.244Z,5.63
2023-09-13T12:29:31.344Z,7.95
2023-09-13T12:34:34.999Z,8.70
2023-09-13T12:39:38.565Z,6.53
2023-09-13T12:44:47.120Z,6.40
2023-09-13T12:49:52.226Z,9.15
2023-09-13T12:54:57.581Z,6.50
2023-09-13T13:00:02.489Z,8.50
2023-09-13T13:05:08.736Z,7.35
2023-09-13T13:10:16.816Z,10.55
2023-09-13T13:15:22.804Z,8.73
2023-09-13T13:20:27.994Z,8.05
2023-09-13T13:25:31.843Z,7.90
2023-09-13T13:30:37.466Z,8.82
2023-09-13T13:35:41.218Z,7.63
2023-09-13T13:40:44.751Z,8.45
2023-09-13T13:45:49.815Z,9.40
2023-09-13T13:50:53.406Z,10.15
2023-09-13T13:55:57.144Z,7.45
2023-09-13T14:01:05.039Z,12.10
2023-09-13T14:06:08.760Z,10.73
2023-09-13T14:11:12.331Z,8.90
2023-09-13T14:16:17.380Z,10.13
2023-09-13T14:21:20.957Z,7.25
2023-09-13T14:26:24.452Z,7.57
2023-09-13T14:31:31.054Z,9.33
2023-09-13T14:36:34.695Z,8.68
2023-09-13T14:41:38.401Z,11.25
2023-09-13T14:46:43.467Z,9.13
2023-09-13T14:51:50.051Z,8.52
2023-09-13T14:56:54.119Z,11.75
2023-09-13T15:02:00.093Z,8.38
2023-09-13T15:07:03.748Z,9.95
2023-09-13T15:12:11.055Z,8.70
2023-09-13T15:17:16.170Z,7.30
2023-09-13T15:22:19.893Z,9.40
2023-09-13T15:27:26.123Z,10.30
2023-09-13T15:32:31.296Z,9.65
2023-09-13T15:37:35.057Z,11.02
2023-09-13T15:42:39.935Z,11.60
2023-09-13T15:47:45.036Z,12.05
2023-09-13T15:52:49.582Z,8.77
2023-09-13T15:57:53.126Z,9.85
2023-09-13T16:02:58.344Z,9.40
2023-09-13T16:08:01.942Z,10.07
2023-09-13T16:13:05.777Z,12.80
2023-09-13T16:18:10.735Z,10.20
2023-09-13T16:23:16.693Z,9.70
2023-09-13T16:28:20.612Z,11.77
2023-09-13T16:33:26.377Z,11.60
2023-09-13T16:38:29.983Z,10.57
2023-09-13T16:43:33.483Z,14.07
2023-09-13T16:48:38.431Z,16.73
2023-09-13T16:53:41.929Z,11.13
2023-09-13T16:58:45.841Z,18.00
2023-09-13T17:03:51.165Z,15.18
2023-09-13T17:08:57.201Z,12.68
2023-09-13T17:14:00.787Z,12.73
2023-09-13T17:19:05.806Z,12.90
2023-09-13T17:24:09.487Z,13.95
2023-09-13T17:29:12.995Z,19.67
2023-09-13T17:34:17.913Z,16.02
2023-09-13T17:39:21.654Z,18.48
2023-09-13T17:44:25.710Z,19.90
2023-09-13T17:49:30.681Z,16.25
2023-09-13T17:54:34.755Z,21.92
2023-09-13T17:59:39.017Z,13.35
2023-09-13T18:04:44.071Z,18.73
2023-09-13T18:09:48.024Z,16.75
2023-09-13T18:14:51.989Z,16.67
2023-09-13T18:19:56.922Z,17.08
2023-09-13T18:25:00.454Z,19.23
2023-09-13T18:30:04.899Z,19.80
2023-09-13T18:35:11.389Z,18.52
2023-09-13T18:40:14.889Z,17.77
2023-09-13T18:45:18.485Z,16.42
2023-09-13T18:50:23.384Z,16.60
2023-09-13T18:55:26.956Z,19.63
2023-09-13T19:00:30.597Z,22.25
2023-09-13T19:05:35.490Z,22.10
2023-09-13T19:10:39.071Z,23.23
2023-09-13T19:15:42.697Z,20.38
2023-09-13T19:20:49.221Z,26.00
2023-09-13T19:25:53.365Z,21.13
2023-09-13T19:30:59.642Z,21.48
2023-09-13T19:36:06.684Z,16.40
2023-09-13T19:41:13.400Z,24.73
2023-09-13T19:46:17.408Z,19.95
2023-09-13T19:51:22.862Z,20.98
2023-09-13T19:56:26.453Z,19.98
2023-09-13T20:01:29.943Z,18.65
2023-09-13T20:06:37.303Z,15.77
2023-09-13T20:11:44.603Z,15.02
2023-09-13T20:16:48.135Z,17.10
2023-09-13T20:21:53.025Z,16.92
2023-09-13T20:26:56.573Z,17.38
2023-09-13T20:32:00.081Z,14.73
2023-09-13T20:37:05.423Z,18.98
2023-09-13T20:42:11.253Z,19.25
2023-09-13T20:47:14.728Z,19.27
2023-09-13T20:52:19.731Z,19.13
2023-09-13T20:57:23.278Z,16.30
2023-09-13T21:02:26.756Z,23.05
2023-09-13T21:07:31.671Z,25.08
2023-09-13T21:12:35.267Z,21.30
2023-09-13T21:17:38.811Z,21.17
2023-09-13T21:22:43.754Z,19.95
2023-09-13T21:32:50.595Z,22.48
2023-09-13T21:37:55.468Z,25.38
2023-09-13T21:42:59.039Z,19.30
2023-09-13T21:48:02.635Z,20.52
2023-09-13T21:53:07.661Z,20.42
2023-09-13T21:58:13.712Z,18.45
2023-09-13T22:03:18.038Z,25.20
2023-09-13T22:08:23.164Z,22.75
2023-09-13T22:13:27.045Z,22.00
2023-09-13T22:18:31.037Z,22.07
2023-09-13T22:23:36.146Z,20.00
2023-09-13T22:28:39.733Z,19.67
2023-09-13T22:33:43.381Z,18.25
2023-09-13T22:38:58.402Z,21.63
2023-09-13T22:44:11.883Z,19.55
2023-09-13T22:49:15.510Z,24.87
2023-09-13T22:54:20.932Z,22.27
2023-09-13T22:59:24.994Z,23.85
2023-09-13T23:04:28.624Z,19.03
2023-09-13T23:09:34.859Z,23.90
2023-09-13T23:14:38.902Z,25.27
2023-09-13T23:19:42.361Z,20.53
2023-09-13T23:24:47.266Z,20.10
2023-09-13T23:29:50.813Z,24.17
2023-09-13T23:34:54.432Z,23.23
2023-09-13T23:39:59.889Z,21.88
2023-09-13T23:45:03.722Z,24.02
2023-09-13T23:50:08.910Z,21.73
2023-09-13T23:55:14.147Z,22.60
